U.S. Alerts
El Dorado Weather Logo
Placerville, Ca. Station Historical Data
[ Providing Data Since 6/22/2006 ]spacer

 
Daily Summary for September 05, 2026 Units:  English    Metric   Both
Daily Weekly Monthly Yearly Custom
  Current: High: Low: Average:
Temperature: 79 °F 79 °F 49.7 °F 62.2 °F
Dew Point: 49.5 °F 50.7 °F 43.1 °F 46.3 °F
Humidity: 35.7% 81.8% 34.6% 60%
Wind Speed: 2.2mph 5.9mph 0mph 0.8mph
Wind Gust: 4mph 14mph - -
WindWSW - - SW
Pressure: 29.93 in 29.97 in 29.93 in -
Precipitation: 0.00 in      
Historical Graphs
 
 
Tabular Data for September 05, 2026
Time Temperature Dew Point Pressure Wind Wind Speed Wind Gust Humidity Rainfall Rate (Hourly) solar
00:04 54.8 °F 45.2 °F 29.95 in Calm     70% 0.00 in 0 W/m2
00:09 54.9 °F 45.3 °F 29.96 in Calm     70% 0.00 in 0 W/m2
00:14 55 °F 45.4 °F 29.96 in Calm     70% 0.00 in 0 W/m2
00:19 55 °F 45.1 °F 29.95 in Calm     69.3% 0.00 in 0 W/m2
00:24 55 °F 45.3 °F 29.95 in Calm     69.7% 0.00 in 0 W/m2
00:29 55 °F 45.4 °F 29.95 in Calm     70% 0.00 in 0 W/m2
00:34 55 °F 45.4 °F 29.95 in Calm     70% 0.00 in 0 W/m2
00:39 55 °F 45.5 °F 29.95 in Calm     70.1% 0.00 in 0 W/m2
00:44 55 °F 45.8 °F 29.95 in Calm     71% 0.00 in 0 W/m2
00:49 54.9 °F 45.8 °F 29.96 in Calm     71.4% 0.00 in 0 W/m2
00:54 54.7 °F 45.8 °F 29.96 in Calm     71.8% 0.00 in 0 W/m2
00:59 54.6 °F 45.8 °F 29.95 in Calm     72.2% 0.00 in 0 W/m2
01:04 54.6 °F 46.1 °F 29.95 in Calm     73% 0.00 in 0 W/m2
01:09 54.7 °F 45.9 °F 29.95 in Calm     72.2% 0.00 in 0 W/m2
01:14 54.7 °F 46 °F 29.95 in Calm     72.4% 0.00 in 0 W/m2
01:19 54.7 °F 45.8 °F 29.95 in Calm     72.1% 0.00 in 0 W/m2
01:24 54.7 °F 45.8 °F 29.95 in Calm     72% 0.00 in 0 W/m2
01:29 54.7 °F 45.8 °F 29.95 in Calm     72% 0.00 in 0 W/m2
01:34 54.6 °F 45.6 °F 29.96 in Calm     71.5% 0.00 in 0 W/m2
01:39 54.5 °F 45.6 °F 29.95 in Calm     71.8% 0.00 in 0 W/m2
01:44 54.4 °F 45.9 °F 29.95 in Calm     73% 0.00 in 0 W/m2
01:49 54.3 °F 45.6 °F 29.95 in Calm     72.1% 0.00 in 0 W/m2
01:54 54.3 °F 45.5 °F 29.95 in Calm     72% 0.00 in 0 W/m2
01:59 54.1 °F 45.3 °F 29.95 in Calm     72% 0.00 in 0 W/m2
02:04 54 °F 45.2 °F 29.95 in Calm     72% 0.00 in 0 W/m2
02:09 53.9 °F 45.2 °F 29.95 in Calm     72.2% 0.00 in 0 W/m2
02:14 53.8 °F 45.3 °F 29.95 in Calm     73% 0.00 in 0 W/m2
02:19 53.7 °F 45.2 °F 29.95 in Calm     73% 0.00 in 0 W/m2
02:24 53.5 °F 45 °F 29.95 in Calm     72.9% 0.00 in 0 W/m2
02:29 53.3 °F 44.6 °F 29.95 in Calm     72.3% 0.00 in 0 W/m2
02:34 53.2 °F 44.7 °F 29.95 in Calm     72.9% 0.00 in 0 W/m2
02:39 53 °F 44.9 °F 29.96 in Calm     73.9% 0.00 in 0 W/m2
02:44 52.8 °F 45.1 °F 29.96 in Calm     75% 0.00 in 0 W/m2
02:49 52.7 °F 44.6 °F 29.96 in Calm     74% 0.00 in 0 W/m2
02:54 52.7 °F 44.9 °F 29.96 in Calm     75% 0.00 in 0 W/m2
02:59 52.7 °F 44.8 °F 29.96 in Calm     74.6% 0.00 in 0 W/m2
03:04 52.7 °F 44.8 °F 29.96 in Calm     74.5% 0.00 in 0 W/m2
03:09 52.7 °F 44.9 °F 29.96 in Calm     74.7% 0.00 in 0 W/m2
03:14 52.8 °F 45.1 °F 29.96 in Calm     75% 0.00 in 0 W/m2
03:19 52.7 °F 44.8 °F 29.96 in Calm     74.4% 0.00 in 0 W/m2
03:24 52.7 °F 44.4 °F 29.96 in Calm     73.3% 0.00 in 0 W/m2
03:29 52.6 °F 44.5 °F 29.95 in Calm     74% 0.00 in 0 W/m2
03:34 52.5 °F 44.4 °F 29.95 in Calm     74% 0.00 in 0 W/m2
03:39 52.3 °F 44.3 °F 29.95 in Calm     74% 0.00 in 0 W/m2
03:44 52.2 °F 44.5 °F 29.95 in Calm     75.1% 0.00 in 0 W/m2
03:49 52.1 °F 44.4 °F 29.95 in Calm     75% 0.00 in 0 W/m2
03:54 52 °F 44.3 °F 29.95 in Calm     74.8% 0.00 in 0 W/m2
03:59 51.8 °F 44.3 °F 29.96 in Calm     75.4% 0.00 in 0 W/m2
04:04 51.5 °F 44 °F 29.96 in Calm     75.3% 0.00 in 0 W/m2
04:09 51.3 °F 44.1 °F 29.95 in Calm     76.3% 0.00 in 0 W/m2
04:14 51.1 °F 43.8 °F 29.95 in Calm     76% 0.00 in 0 W/m2
04:19 50.9 °F 43.8 °F 29.95 in Calm     76.5% 0.00 in 0 W/m2
04:24 50.8 °F 43.8 °F 29.95 in Calm     77% 0.00 in 0 W/m2
04:29 50.7 °F 43.8 °F 29.95 in Calm     77% 0.00 in 0 W/m2
04:34 50.7 °F 44 °F 29.95 in Calm     77.6% 0.00 in 0 W/m2
04:39 50.7 °F 44 °F 29.95 in Calm     77.6% 0.00 in 0 W/m2
04:44 50.7 °F 44 °F 29.95 in Calm     77.6% 0.00 in 0 W/m2
04:49 50.7 °F 43.9 °F 29.95 in Calm     77.3% 0.00 in 0 W/m2
04:54 50.6 °F 43.8 °F 29.95 in Calm     77.3% 0.00 in 0 W/m2
04:59 50.5 °F 43.8 °F 29.95 in Calm     77.6% 0.00 in 0 W/m2
05:04 50.4 °F 43.9 °F 29.95 in Calm     78.5% 0.00 in 0 W/m2
05:09 50.2 °F 43.7 °F 29.95 in Calm     78.3% 0.00 in 0 W/m2
05:14 50.1 °F 43.6 °F 29.95 in Calm     78.1% 0.00 in 0 W/m2
05:19 50 °F 43.4 °F 29.95 in Calm     78% 0.00 in 0 W/m2
05:24 50 °F 43.4 °F 29.95 in Calm     78% 0.00 in 0 W/m2
05:29 50 °F 43.4 °F 29.95 in Calm     78% 0.00 in 0 W/m2
05:34 49.9 °F 43.3 °F 29.95 in Calm     78% 0.00 in 0 W/m2
05:39 49.9 °F 43.4 °F 29.95 in Calm     78.4% 0.00 in 0 W/m2
05:44 49.8 °F 43.3 °F 29.95 in Calm     78.4% 0.00 in 0 W/m2
05:49 49.7 °F 43.1 °F 29.95 in Calm     78% 0.00 in 0 W/m2
05:54 49.7 °F 43.1 °F 29.95 in Calm     78% 0.00 in 0 W/m2
05:59 49.7 °F 43.3 °F 29.95 in Calm     78.5% 0.00 in 0 W/m2
06:04 49.7 °F 43.5 °F 29.95 in Calm     79% 0.00 in 0 W/m2
06:09 49.7 °F 43.5 °F 29.95 in Calm     79% 0.00 in 0 W/m2
06:14 49.7 °F 43.5 °F 29.95 in Calm     79% 0.00 in 0 W/m2
06:19 49.8 °F 43.3 °F 29.95 in Calm     78.5% 0.00 in 0 W/m2
06:24 49.8 °F 43.5 °F 29.95 in Calm     79% 0.00 in 0 W/m2
06:29 49.8 °F 43.4 °F 29.95 in Calm     78.7% 0.00 in 0 W/m2
06:34 49.8 °F 43.3 °F 29.95 in Calm     78.5% 0.00 in 0 W/m2
06:39 49.8 °F 43.5 °F 29.95 in Calm     79% 0.00 in 0 W/m2
06:44 49.8 °F 43.8 °F 29.96 in Calm     79.8% 0.00 in 0 W/m2
06:49 49.9 °F 43.8 °F 29.96 in Calm     79.5% 0.00 in 0 W/m2
06:54 49.9 °F 43.7 °F 29.96 in Calm     79.3% 0.00 in 0 W/m2
06:59 50 °F 43.7 °F 29.96 in Calm     79% 0.00 in 7 W/m2
07:04 50 °F 43.7 °F 29.96 in Calm     79% 0.00 in 9 W/m2
07:09 50.1 °F 44.1 °F 29.96 in Calm     79.7% 0.00 in 11 W/m2
07:14 50.2 °F 44.3 °F 29.96 in Calm     80% 0.00 in 14 W/m2
07:19 50.3 °F 44.4 °F 29.96 in Calm     80% 0.00 in 14 W/m2
07:24 50.4 °F 44.5 °F 29.96 in Calm     80% 0.00 in 21 W/m2
07:29 50.5 °F 44.3 °F 29.96 in Calm     79.3% 0.00 in 25 W/m2
07:34 50.7 °F 44.7 °F 29.96 in Calm     79.7% 0.00 in 28 W/m2
07:39 50.8 °F 44.9 °F 29.96 in Calm     80% 0.00 in 51 W/m2
07:44 51.1 °F 45.5 °F 29.96 in Calm     81% 0.00 in 54 W/m2
07:49 51.3 °F 45.7 °F 29.96 in Calm     81% 0.00 in 54 W/m2
07:54 51.6 °F 46.1 °F 29.96 in Calm     81.3% 0.00 in 58 W/m2
07:59 52.1 °F 46.6 °F 29.96 in Calm     81.5% 0.00 in 58 W/m2
08:04 52.5 °F 47.1 °F 29.96 in Calm     81.8% 0.00 in 65 W/m2
08:09 53 °F 47.4 °F 29.96 in Calm     81% 0.00 in 63 W/m2
08:14 53.5 °F 47.5 °F 29.96 in Calm     79.8% 0.00 in 51 W/m2
08:19 54.1 °F 47.8 °F 29.96 in Calm     79.2% 0.00 in 53 W/m2
08:24 54.7 °F 47.9 °F 29.96 in Calm     77.7% 0.00 in 83 W/m2
08:29 55.3 °F 48.2 °F 29.97 in Calm     77.2% 0.00 in 83 W/m2
08:34 55.8 °F 48.7 °F 29.96 in Calm     77% 0.00 in 83 W/m2
08:39 56.4 °F 49.3 °F 29.96 in Calm     77% 0.00 in 81 W/m2
08:44 56.9 °F 49.4 °F 29.96 in Calm     76.1% 0.00 in 74 W/m2
08:49 57.4 °F 49.6 °F 29.96 in Calm     75.4% 0.00 in 81 W/m2
08:54 57.8 °F 49.4 °F 29.96 in Calm     73.3% 0.00 in 118 W/m2
08:59 58.4 °F 49.6 °F 29.96 in Calm     72.5% 0.00 in 118 W/m2
09:04 59 °F 49.5 °F 29.96 in Calm     70.8% 0.00 in 95 W/m2
09:09 59.5 °F 49.4 °F 29.96 in Calm     69.2% 0.00 in 134 W/m2
09:14 60.1 °F 49.7 °F 29.96 in Calm     68.5% 0.00 in 156 W/m2
09:19 60.8 °F 49.6 °F 29.96 in Calm     66.6% 0.00 in 148 W/m2
09:24 61.5 °F 50 °F 29.97 in Calm     66% 0.00 in 387 W/m2
09:29 62.2 °F 50.3 °F 29.97 in Calm     65% 0.00 in 387 W/m2
09:34 62.8 °F 50.7 °F 29.97 in Calm     64.5% 0.00 in 570 W/m2
09:39 63.6 °F 49.5 °F 29.97 in Calm     59.9% 0.00 in 570 W/m2
09:44 64.5 °F 48.3 °F 29.97 in Calm     55.8% 0.00 in 522 W/m2
09:49 65.2 °F 48.2 °F 29.97 in Calm     54.1% 0.00 in 214 W/m2
09:54 66 °F 48.4 °F 29.96 in Calm     53.1% 0.00 in 325 W/m2
09:59 66.7 °F 47.4 °F 29.97 in SSE 1.3 mph 0.5 mph 49.9% 0.00 in 192 W/m2
10:04 67.1 °F 47.7 °F 29.97 in Calm   4 mph 49.7% 0.00 in 192 W/m2
10:09 67.4 °F 48.1 °F 29.97 in Calm     50% 0.00 in 230 W/m2
10:14 67.6 °F 47.7 °F 29.97 in Calm     48.8% 0.00 in 230 W/m2
10:19 68 °F 46.8 °F 29.97 in Calm     46.5% 0.00 in 485 W/m2
10:24 68.4 °F 46.9 °F 29.97 in NNW 0.8 mph 0.2 mph 46.2% 0.00 in 485 W/m2
10:29 68.7 °F 46.4 °F 29.97 in NNW 1.3 mph 4 mph 44.8% 0.00 in 264 W/m2
10:34 69.1 °F 47.8 °F 29.97 in North 2.6 mph 4.8 mph 46.6% 0.00 in 666 W/m2
10:39 69.7 °F 47.1 °F 29.97 in NNW 1.4 mph 4 mph 44.5% 0.00 in 752 W/m2
10:44 70.1 °F 46.9 °F 29.97 in North 2.8 mph 6 mph 43.6% 0.00 in 770 W/m2
10:49 70.5 °F 46.1 °F 29.97 in Calm   4 mph 41.8% 0.00 in 814 W/m2
10:54 70.8 °F 46.3 °F 29.97 in Calm     41.6% 0.00 in 260 W/m2
10:59 71.1 °F 45.3 °F 29.97 in Calm     39.5% 0.00 in 308 W/m2
11:04 71.3 °F 45.1 °F 29.97 in Calm     39% 0.00 in 838 W/m2
11:09 71.8 °F 45.5 °F 29.97 in SE 1 mph 0.7 mph 39% 0.00 in 838 W/m2
11:14 72.6 °F 46.5 °F 29.97 in ENE 1.9 mph 2.9 mph 39.5% 0.00 in 708 W/m2
11:19 73 °F 47.9 °F 29.97 in NNW 3.2 mph 6.1 mph 41% 0.00 in 371 W/m2
11:24 72.8 °F 47.7 °F 29.97 in WSW 0.5 mph 6 mph 41% 0.00 in 264 W/m2
11:29 72.8 °F 47.7 °F 29.97 in East 1.5 mph 2.3 mph 41% 0.00 in 504 W/m2
11:34 72.8 °F 47.7 °F 29.97 in NNW 1.5 mph 4 mph 41% 0.00 in 504 W/m2
11:39 72.4 °F 47.4 °F 29.97 in WNW 1.7 mph 2 mph 41% 0.00 in 299 W/m2
11:44 72.2 °F 47.2 °F 29.97 in ENE 3 mph 4 mph 41% 0.00 in 299 W/m2
11:49 72 °F 47.2 °F 29.97 in WNW 3.3 mph 6 mph 41.3% 0.00 in 591 W/m2
11:54 71.9 °F 47.4 °F 29.97 in WNW 1.8 mph 6 mph 41.7% 0.00 in 404 W/m2
11:59 72 °F 47.4 °F 29.97 in WNW 5.4 mph 6.6 mph 41.7% 0.00 in 424 W/m2
12:04 71.9 °F 47 °F 29.97 in NW 1.6 mph 8 mph 41.3% 0.00 in 424 W/m2
12:09 71.7 °F 46.4 °F 29.97 in NW 2.1 mph 2.6 mph 40.4% 0.00 in 371 W/m2
12:14 71.9 °F 46.4 °F 29.97 in NNW 1 mph 4 mph 40.1% 0.00 in 872 W/m2
12:19 72.4 °F 46 °F 29.97 in NW 3.1 mph 5.4 mph 38.9% 0.00 in 608 W/m2
12:24 72.8 °F 44.7 °F 29.97 in WNW 3 mph 6 mph 36.7% 0.00 in 431 W/m2
12:29 73.1 °F 43.8 °F 29.97 in SSW 5.9 mph 8.7 mph 34.9% 0.00 in 431 W/m2
12:34 73.3 °F 44.8 °F 29.97 in NNE 3.2 mph 8 mph 36.1% 0.00 in 431 W/m2
12:39 73.7 °F 44.3 °F 29.97 in North 4.1 mph 8 mph 35% 0.00 in 923 W/m2
12:44 74.2 °F 44.8 °F 29.97 in SSE 2.6 mph 8 mph 35% 0.00 in 923 W/m2
12:49 74.8 °F 45.3 °F 29.97 in WNW 2.7 mph 4 mph 35% 0.00 in 900 W/m2
12:54 75.3 °F 45.5 °F 29.97 in WNW 5.2 mph 11.7 mph 34.7% 0.00 in 935 W/m2
12:59 75.8 °F 46.6 °F 29.97 in Calm   9 mph 35.6% 0.00 in 721 W/m2
13:04 76.5 °F 46.6 °F 29.97 in West 5.8 mph 8.9 mph 34.7% 0.00 in 1044 W/m2
13:09 76.8 °F 47.4 °F 29.97 in SE 4 mph 14 mph 35.4% 0.00 in 1044 W/m2
13:14 76.4 °F 46.4 °F 29.97 in NNW 4.2 mph 9.2 mph 34.6% 0.00 in 1062 W/m2
13:19 75.8 °F 46.3 °F 29.97 in SSW 3.7 mph 8.2 mph 35.2% 0.00 in 976 W/m2
13:24 75.6 °F 46.2 °F 29.97 in West 2.4 mph 4 mph 35.2% 0.00 in 976 W/m2
13:29 75.5 °F 46.8 °F 29.97 in North 2.4 mph 4.6 mph 36.1% 0.00 in 550 W/m2
13:34 75 °F 46.4 °F 29.97 in NNW 5.3 mph 8 mph 36.2% 0.00 in 271 W/m2
13:39 74.5 °F 45.8 °F 29.97 in NW 1.5 mph 8 mph 36% 0.00 in 227 W/m2
13:44 74.5 °F 46.1 °F 29.97 in SSE 2.9 mph 4.5 mph 36.3% 0.00 in 1032 W/m2
13:49 75 °F 46.3 °F 29.97 in WNW 2.2 mph 6 mph 36.2% 0.00 in 401 W/m2
13:54 75.2 °F 46.4 °F 29.96 in West 0.5 mph 6 mph 36% 0.00 in 401 W/m2
13:59 75.4 °F 46.9 °F 29.97 in WNW 2.4 mph 1.3 mph 36.4% 0.00 in 302 W/m2
14:04 75.4 °F 47.3 °F 29.96 in WSW 2.9 mph 6.6 mph 37% 0.00 in 981 W/m2
14:09 75.2 °F 48 °F 29.97 in West 2.8 mph 8 mph 38.3% 0.00 in 302 W/m2
14:14 74.8 °F 47.8 °F 29.97 in East 3 mph 3 mph 38.4% 0.00 in 236 W/m2
14:19 74.5 °F 47.5 °F 29.96 in North 0.4 mph 6 mph 38.3% 0.00 in 462 W/m2
14:24 74.4 °F 47.4 °F 29.96 in WSW 0.6 mph 0.5 mph 38.4% 0.00 in 431 W/m2
14:29 74.7 °F 47.7 °F 29.96 in NNE 0.5 mph 2 mph 38.5% 0.00 in 995 W/m2
14:34 75.2 °F 47.8 °F 29.96 in West 1.4 mph 0.2 mph 38% 0.00 in 930 W/m2
14:39 75.8 °F 47.9 °F 29.96 in West 0.4 mph 4 mph 37.3% 0.00 in 919 W/m2
14:44 76.1 °F 47.8 °F 29.96 in Calm     36.8% 0.00 in 923 W/m2
14:49 76.3 °F 48.2 °F 29.96 in NNW 1.8 mph 5.5 mph 37.2% 0.00 in 315 W/m2
14:54 76.4 °F 47.9 °F 29.96 in NNW 2.9 mph 6.7 mph 36.6% 0.00 in 487 W/m2
14:59 76.6 °F 47.9 °F 29.95 in NE 1.9 mph 4 mph 36.3% 0.00 in 487 W/m2
15:04 76.7 °F 47.7 °F 29.95 in SW 1.2 mph 4 mph 36% 0.00 in 861 W/m2
15:09 77.1 °F 47.8 °F 29.95 in WSW 4.3 mph 5.4 mph 35.7% 0.00 in 849 W/m2
15:14 77.8 °F 50 °F 29.94 in ENE 5 mph 12 mph 37.8% 0.00 in 803 W/m2
15:19 78 °F 48.8 °F 29.95 in NNW 4.3 mph 7.3 mph 35.9% 0.00 in 227 W/m2
15:24 77.4 °F 48.9 °F 29.95 in NNW 0.5 mph 6 mph 36.8% 0.00 in 183 W/m2
15:29 76.8 °F 48.3 °F 29.95 in ENE 0.9 mph 2 mph 36.7% 0.00 in 214 W/m2
15:34 76.3 °F 48 °F 29.94 in Calm   4 mph 36.8% 0.00 in 171 W/m2
15:39 76.1 °F 47.6 °F 29.94 in NW 0.9 mph 1 mph 36.7% 0.00 in 243 W/m2
15:44 76 °F 49.2 °F 29.94 in WSW 0.6 mph 4 mph 39.1% 0.00 in 264 W/m2
15:49 76 °F 49.9 °F 29.94 in SSE 1.5 mph 2 mph 40% 0.00 in 276 W/m2
15:54 76.1 °F 50 °F 29.94 in Calm   4 mph 40% 0.00 in 221 W/m2
15:59 76.2 °F 50.1 °F 29.94 in Calm     40% 0.00 in 236 W/m2
16:04 76.3 °F 50.2 °F 29.94 in NW 3.3 mph 7.3 mph 40% 0.00 in 218 W/m2
16:09 76.2 °F 50.1 °F 29.94 in NE 0.8 mph 6 mph 40% 0.00 in 564 W/m2
16:14 76.3 °F 50.2 °F 29.94 in North 0.9 mph 4 mph 40% 0.00 in 220 W/m2
16:19 76.7 °F 50 °F 29.94 in Calm   2 mph 39.2% 0.00 in 615 W/m2
16:24 76.9 °F 48.8 °F 29.94 in WSW 1 mph 2 mph 37.2% 0.00 in 200 W/m2
16:29 76.9 °F 48.4 °F 29.94 in NW 1 mph 7.8 mph 36.7% 0.00 in 403 W/m2
16:34 76.5 °F 48.4 °F 29.93 in NW 3.6 mph 10.3 mph 37.1% 0.00 in 547 W/m2
16:39 76.7 °F 48.8 °F 29.93 in SSW 0.8 mph 8 mph 37.4% 0.00 in 543 W/m2
16:44 77.5 °F 48.6 °F 29.93 in WNW 1.8 mph 4 mph 36.2% 0.00 in 543 W/m2
16:49 78 °F 48.9 °F 29.93 in WNW 1.1 mph 4 mph 36% 0.00 in 519 W/m2
16:54 78.5 °F 49.1 °F 29.93 in NW 4.2 mph 6.3 mph 35.8% 0.00 in 497 W/m2
16:59 78.5 °F 49.2 °F 29.93 in WSW 1.9 mph 6 mph 35.8% 0.00 in 485 W/m2
17:04 78.8 °F 49.1 °F 29.93 in WSW 0.7 mph 4 mph 35.3% 0.00 in 410 W/m2
17:09 79 °F 49.5 °F 29.93 in WSW 2.2 mph 4 mph 35.7% 0.00 in 387 W/m2
El Dorado Weather
Compliments of Weather Underground - 2 mb






Contact Us Contact Us Thumbnail | Mobile Mobile Phone Thumbnail
Private Policy | Terms & Conds | Consent Preferences | Cookie Policy
Never base any life decisions on weather information from this site or anywhere over the Internet.
Site is dedicated to our Lord & Savior Jesus Christ | Random Quotes of Jesus

Copyright © 2026 El Dorado Weather, Inc. | Site Designed By:  Webmaster Danny